createdAt,value
2023-11-28T00:00:13.031Z,1.40
2023-11-28T00:00:44.457Z,1.41
2023-11-28T00:01:15.886Z,1.53
2023-11-28T00:01:47.526Z,1.39
2023-11-28T00:02:19.240Z,1.87
2023-11-28T00:02:50.917Z,1.69
2023-11-28T00:03:22.479Z,1.59
2023-11-28T00:03:53.949Z,1.59
2023-11-28T00:04:25.508Z,1.72
2023-11-28T00:04:57.132Z,1.38
2023-11-28T00:05:28.602Z,1.78
2023-11-28T00:06:00.054Z,1.63
2023-11-28T00:06:31.543Z,1.23
2023-11-28T00:07:03.054Z,1.62
2023-11-28T00:07:34.552Z,1.91
2023-11-28T00:08:06.289Z,1.42
2023-11-28T00:08:37.745Z,1.36
2023-11-28T00:09:09.179Z,1.60
2023-11-28T00:09:40.628Z,1.56
2023-11-28T00:10:12.080Z,1.24
2023-11-28T00:10:43.625Z,1.84
2023-11-28T00:11:15.152Z,1.48
2023-11-28T00:11:46.600Z,1.67
2023-11-28T00:12:18.022Z,1.98
2023-11-28T00:12:49.456Z,1.56
2023-11-28T00:13:20.895Z,1.41
2023-11-28T00:13:52.625Z,1.69
2023-11-28T00:14:24.123Z,2.15
2023-11-28T00:14:55.556Z,1.55
2023-11-28T00:15:27.025Z,1.59
2023-11-28T00:15:58.530Z,1.23
2023-11-28T00:16:30.126Z,1.42
2023-11-28T00:17:01.788Z,1.52
2023-11-28T00:17:33.411Z,1.33
2023-11-28T00:18:05.020Z,1.40
2023-11-28T00:18:36.621Z,1.20
2023-11-28T00:19:08.165Z,1.62
2023-11-28T00:19:39.670Z,1.66
2023-11-28T00:20:11.104Z,1.48
2023-11-28T00:20:42.637Z,1.57
2023-11-28T00:21:14.137Z,1.39
2023-11-28T00:21:48.996Z,1.50
2023-11-28T00:22:20.700Z,1.43
2023-11-28T00:22:52.179Z,1.69
2023-11-28T00:23:23.649Z,1.39
2023-11-28T00:23:55.094Z,1.34
2023-11-28T00:24:26.529Z,1.17
2023-11-28T00:24:57.963Z,1.70
2023-11-28T00:25:29.575Z,1.85
2023-11-28T00:26:01.158Z,1.34
2023-11-28T00:26:32.612Z,1.14
2023-11-28T00:27:04.066Z,1.54
2023-11-28T00:27:35.512Z,1.73
2023-11-28T00:28:06.953Z,1.69
2023-11-28T00:28:38.447Z,1.54
2023-11-28T00:29:09.886Z,2.13
2023-11-28T00:29:41.314Z,1.53
2023-11-28T00:30:12.743Z,1.57
2023-11-28T00:30:44.269Z,1.47
2023-11-28T00:31:15.758Z,1.86
2023-11-28T00:31:47.314Z,1.26
2023-11-28T00:32:18.959Z,1.31
2023-11-28T00:32:50.453Z,1.86
2023-11-28T00:33:21.938Z,1.46
2023-11-28T00:33:53.376Z,1.36
2023-11-28T00:34:24.831Z,0.93
2023-11-28T00:34:56.344Z,1.21
2023-11-28T00:35:27.919Z,1.06
2023-11-28T00:35:59.353Z,1.65
2023-11-28T00:36:30.809Z,1.30
2023-11-28T00:37:02.255Z,1.33
2023-11-28T00:37:33.721Z,1.11
2023-11-28T00:38:05.175Z,1.49
2023-11-28T00:38:36.598Z,1.21
2023-11-28T00:39:08.034Z,1.19
2023-11-28T00:39:39.563Z,1.59
2023-11-28T00:40:11.028Z,1.48
2023-11-28T00:40:42.495Z,1.52
2023-11-28T00:41:13.959Z,1.37
2023-11-28T00:41:45.575Z,1.27
2023-11-28T00:42:17.044Z,1.41
2023-11-28T00:42:48.494Z,1.53
2023-11-28T00:43:19.935Z,1.09
2023-11-28T00:43:51.394Z,1.67
2023-11-28T00:44:22.899Z,1.44
2023-11-28T00:44:54.342Z,1.67
2023-11-28T00:45:25.786Z,1.44
2023-11-28T00:45:57.211Z,1.30
2023-11-28T00:46:28.840Z,1.33
2023-11-28T00:47:00.450Z,1.22
2023-11-28T00:47:32.015Z,1.13
2023-11-28T00:48:03.622Z,1.17
2023-11-28T00:48:35.139Z,1.21
2023-11-28T00:49:06.683Z,1.38
2023-11-28T00:49:38.163Z,1.48
2023-11-28T00:50:09.612Z,1.51
2023-11-28T00:50:41.048Z,1.26
2023-11-28T00:51:12.485Z,1.40
2023-11-28T00:51:43.937Z,1.67
2023-11-28T00:52:16.879Z,1.36
2023-11-28T00:52:49.721Z,0.98
2023-11-28T00:53:21.246Z,1.37
2023-11-28T00:53:52.744Z,1.03
2023-11-28T00:54:24.268Z,1.42
2023-11-28T00:54:55.701Z,1.52
2023-11-28T00:55:27.156Z,1.53
2023-11-28T00:55:58.665Z,1.46
2023-11-28T00:56:30.122Z,1.01
2023-11-28T00:57:01.565Z,1.34
2023-11-28T00:57:32.999Z,1.34
2023-11-28T00:58:04.447Z,1.41
2023-11-28T00:58:35.976Z,1.56
2023-11-28T00:59:07.484Z,1.18
2023-11-28T00:59:38.945Z,1.02
2023-11-28T01:00:10.396Z,1.21
2023-11-28T01:00:41.831Z,1.20
2023-11-28T01:01:13.258Z,0.99
2023-11-28T01:01:44.742Z,1.08
2023-11-28T01:02:16.322Z,1.25
2023-11-28T01:02:47.954Z,1.34
2023-11-28T01:03:19.611Z,1.21
2023-11-28T01:03:51.148Z,1.55
2023-11-28T01:04:22.684Z,1.44
2023-11-28T01:04:54.232Z,1.63
2023-11-28T01:05:25.699Z,1.36
2023-11-28T01:05:57.154Z,1.73
2023-11-28T01:06:28.601Z,1.46
2023-11-28T01:07:00.046Z,1.16
2023-11-28T01:07:31.509Z,1.28
2023-11-28T01:08:03.105Z,1.16
2023-11-28T01:08:34.610Z,1.31
2023-11-28T01:09:06.045Z,1.31
2023-11-28T01:09:37.476Z,1.22
2023-11-28T01:10:09.010Z,1.39
2023-11-28T01:10:40.536Z,1.41
2023-11-28T01:11:12.005Z,1.02
2023-11-28T01:11:43.466Z,1.22
2023-11-28T01:12:14.903Z,1.27
2023-11-28T01:12:46.401Z,1.47
2023-11-28T01:13:17.932Z,1.32
2023-11-28T01:13:49.429Z,1.07
2023-11-28T01:14:20.912Z,1.26
2023-11-28T01:14:52.348Z,1.25
2023-11-28T01:15:23.782Z,1.04
2023-11-28T01:15:55.240Z,1.42
2023-11-28T01:16:26.769Z,1.06
2023-11-28T01:16:58.320Z,1.13
2023-11-28T01:17:29.866Z,0.96
2023-11-28T01:18:01.433Z,0.96
2023-11-28T01:18:32.884Z,1.41
2023-11-28T01:19:04.333Z,1.14
2023-11-28T01:19:35.844Z,1.29
2023-11-28T01:20:07.343Z,1.06
2023-11-28T01:20:38.784Z,0.69
2023-11-28T01:21:10.211Z,1.15
2023-11-28T01:21:41.646Z,0.87
2023-11-28T01:22:13.125Z,1.31
2023-11-28T01:22:44.663Z,0.83
2023-11-28T01:23:16.147Z,0.89
2023-11-28T01:23:47.578Z,1.08
2023-11-28T01:24:19.033Z,1.11
2023-11-28T01:24:50.473Z,1.16
2023-11-28T01:25:21.933Z,1.58
2023-11-28T01:25:53.418Z,1.06
2023-11-28T01:26:24.905Z,1.09
2023-11-28T01:26:56.418Z,1.29
2023-11-28T01:27:27.941Z,1.16
2023-11-28T01:27:59.372Z,0.87
2023-11-28T01:28:30.827Z,1.38
2023-11-28T01:29:02.308Z,1.18
2023-11-28T01:29:33.785Z,1.07
2023-11-28T01:30:05.244Z,1.21
2023-11-28T01:30:36.688Z,1.17
2023-11-28T01:31:08.141Z,0.94
2023-11-28T01:31:39.661Z,1.34
2023-11-28T01:32:11.353Z,1.00
2023-11-28T01:32:42.958Z,1.02
2023-11-28T01:33:14.473Z,1.13
2023-11-28T01:33:45.912Z,0.88
2023-11-28T01:34:18.107Z,1.06
2023-11-28T01:34:49.768Z,1.09
2023-11-28T01:35:21.215Z,0.89
2023-11-28T01:35:52.643Z,1.19
2023-11-28T01:36:24.087Z,1.04
2023-11-28T01:36:55.582Z,1.13
2023-11-28T01:37:27.053Z,0.95
2023-11-28T01:38:00.486Z,1.28
2023-11-28T01:38:32.166Z,1.17
2023-11-28T01:39:03.592Z,1.12
2023-11-28T01:39:35.024Z,0.97
2023-11-28T01:40:06.464Z,1.14
2023-11-28T01:40:37.903Z,1.21
2023-11-28T01:41:09.503Z,1.18
2023-11-28T01:41:40.964Z,1.03
2023-11-28T01:42:12.392Z,1.11
2023-11-28T01:42:43.830Z,0.90
2023-11-28T01:43:15.266Z,1.07
2023-11-28T01:43:46.724Z,1.21
2023-11-28T01:44:18.158Z,1.15
2023-11-28T01:44:49.601Z,1.02
2023-11-28T01:45:21.030Z,1.00
2023-11-28T01:45:52.513Z,1.33
2023-11-28T01:46:23.960Z,1.22
2023-11-28T01:46:55.476Z,1.30
2023-11-28T01:47:26.964Z,1.06
2023-11-28T01:47:58.439Z,0.96
2023-11-28T01:48:29.885Z,0.83
2023-11-28T01:49:01.327Z,1.13
2023-11-28T01:49:32.771Z,1.15
2023-11-28T01:50:04.346Z,1.22
2023-11-28T01:50:35.939Z,1.02
2023-11-28T01:51:07.475Z,1.13
2023-11-28T01:51:38.942Z,0.86
2023-11-28T01:52:10.377Z,0.99
2023-11-28T01:52:41.874Z,1.29
2023-11-28T01:53:13.361Z,0.94
2023-11-28T01:53:44.833Z,0.97
2023-11-28T01:54:16.269Z,1.32
2023-11-28T01:54:47.697Z,1.10
2023-11-28T01:55:19.193Z,1.12
2023-11-28T01:55:50.719Z,0.88
2023-11-28T01:56:22.197Z,0.94
2023-11-28T01:56:53.656Z,1.06
2023-11-28T01:57:25.106Z,0.92
2023-11-28T01:57:56.537Z,0.84
2023-11-28T01:58:27.991Z,1.00
2023-11-28T01:58:59.511Z,1.01
2023-11-28T01:59:30.968Z,1.05
2023-11-28T02:00:02.450Z,1.17
2023-11-28T02:00:33.938Z,1.11
2023-11-28T02:01:05.400Z,1.28
2023-11-28T02:01:37.088Z,1.42
2023-11-28T02:02:08.728Z,0.95
2023-11-28T02:02:40.520Z,1.13
2023-11-28T02:03:12.370Z,0.85
2023-11-28T02:03:43.962Z,0.84
2023-11-28T02:04:15.573Z,0.99
2023-11-28T02:04:47.230Z,0.97
2023-11-28T02:05:18.780Z,1.10
2023-11-28T02:05:50.202Z,1.10
2023-11-28T02:06:21.627Z,0.79
2023-11-28T02:06:53.067Z,1.15
2023-11-28T02:07:24.615Z,1.32
2023-11-28T02:07:56.128Z,1.39
2023-11-28T02:08:27.569Z,1.05
2023-11-28T02:08:59.011Z,0.87
2023-11-28T02:09:30.571Z,1.13
2023-11-28T02:10:02.035Z,0.78
2023-11-28T02:10:33.513Z,1.09
2023-11-28T02:11:04.966Z,0.98
2023-11-28T02:11:36.420Z,0.89
2023-11-28T02:12:07.931Z,0.99
2023-11-28T02:12:39.377Z,1.02
2023-11-28T02:13:12.121Z,0.96
2023-11-28T02:13:43.896Z,1.10
2023-11-28T02:14:15.433Z,0.95
2023-11-28T02:14:46.943Z,0.85
2023-11-28T02:15:18.374Z,1.26
2023-11-28T02:15:49.818Z,1.16
2023-11-28T02:16:21.283Z,1.37
2023-11-28T02:16:52.790Z,1.13
2023-11-28T02:17:24.250Z,0.95
2023-11-28T02:17:55.775Z,1.09
2023-11-28T02:18:27.219Z,1.38
2023-11-28T02:18:58.761Z,1.14
2023-11-28T02:19:30.314Z,1.26
2023-11-28T02:20:01.879Z,1.13
2023-11-28T02:20:33.399Z,0.89
2023-11-28T02:21:04.867Z,0.82
2023-11-28T02:21:36.297Z,0.95
2023-11-28T02:22:07.728Z,0.90
2023-11-28T02:22:39.177Z,1.02
2023-11-28T02:23:10.778Z,0.97
2023-11-28T02:23:42.375Z,0.88
2023-11-28T02:24:13.902Z,0.96
2023-11-28T02:24:45.339Z,1.10
2023-11-28T02:25:16.767Z,0.91
2023-11-28T02:25:48.474Z,1.00
2023-11-28T02:26:19.986Z,1.30
2023-11-28T02:26:51.422Z,1.04
2023-11-28T02:27:22.860Z,0.85
2023-11-28T02:27:54.291Z,0.89
2023-11-28T02:28:25.882Z,0.99
2023-11-28T02:28:57.693Z,1.14
2023-11-28T02:29:29.204Z,0.88
2023-11-28T02:30:00.651Z,1.05
2023-11-28T02:30:32.130Z,1.20
2023-11-28T02:31:03.571Z,1.12
2023-11-28T02:31:35.094Z,1.00
2023-11-28T02:32:06.619Z,1.09
2023-11-28T02:32:38.280Z,0.91
2023-11-28T02:33:09.804Z,0.85
2023-11-28T02:33:41.365Z,1.25
2023-11-28T02:34:12.813Z,0.96
2023-11-28T02:34:44.293Z,1.18
2023-11-28T02:35:21.103Z,0.90
2023-11-28T02:35:54.860Z,0.88
2023-11-28T02:36:26.290Z,0.87
2023-11-28T02:36:57.743Z,0.93
2023-11-28T02:37:29.208Z,1.02
2023-11-28T02:38:00.710Z,0.70
2023-11-28T02:38:32.218Z,0.97
2023-11-28T02:39:03.646Z,0.92
2023-11-28T02:39:35.079Z,0.75
2023-11-28T02:40:06.509Z,0.91
2023-11-28T02:40:37.968Z,1.25
2023-11-28T02:41:09.530Z,1.14
2023-11-28T02:41:40.988Z,1.18
2023-11-28T02:42:12.420Z,1.36
2023-11-28T02:42:43.934Z,1.08
2023-11-28T02:43:15.389Z,0.82
2023-11-28T02:43:46.869Z,1.09
2023-11-28T02:44:18.351Z,0.92
2023-11-28T02:44:49.802Z,0.62
2023-11-28T02:45:21.238Z,0.85
2023-11-28T02:45:52.733Z,0.96
2023-11-28T02:46:24.202Z,0.98
2023-11-28T02:46:55.704Z,0.91
2023-11-28T02:47:27.236Z,0.78
2023-11-28T02:47:58.749Z,1.05
2023-11-28T02:48:30.204Z,0.88
2023-11-28T02:49:01.667Z,0.83
2023-11-28T02:49:33.143Z,1.06
2023-11-28T02:50:04.637Z,0.87
2023-11-28T02:50:36.119Z,1.24
2023-11-28T02:51:07.547Z,1.18
2023-11-28T02:51:38.979Z,0.99
2023-11-28T02:52:10.461Z,0.83
2023-11-28T02:52:41.949Z,0.97
2023-11-28T02:53:13.409Z,0.76
2023-11-28T02:53:44.841Z,0.91
2023-11-28T02:54:16.270Z,0.83
2023-11-28T02:54:47.709Z,0.90
2023-11-28T02:55:19.152Z,1.01
2023-11-28T02:55:50.647Z,0.97
2023-11-28T02:56:22.131Z,0.85
2023-11-28T02:56:53.684Z,0.82
2023-11-28T02:57:25.201Z,1.05
2023-11-28T02:57:56.645Z,0.90
2023-11-28T02:58:28.130Z,0.73
2023-11-28T02:58:59.610Z,0.85
2023-11-28T02:59:31.073Z,0.81
2023-11-28T03:00:02.532Z,1.01
2023-11-28T03:00:33.956Z,1.11
2023-11-28T03:01:05.401Z,1.07
2023-11-28T03:01:37.099Z,0.92
2023-11-28T03:02:08.964Z,1.08
2023-11-28T03:02:40.606Z,0.93
2023-11-28T03:03:12.240Z,0.92
2023-11-28T03:03:43.801Z,0.87
2023-11-28T03:04:15.277Z,0.71
2023-11-28T03:04:46.745Z,0.92
2023-11-28T03:05:18.237Z,0.62
2023-11-28T03:05:49.673Z,0.82
2023-11-28T03:06:21.170Z,0.80
2023-11-28T03:06:52.647Z,0.70
2023-11-28T03:07:24.088Z,0.61
2023-11-28T03:07:55.559Z,1.04
2023-11-28T03:08:27.018Z,1.01
2023-11-28T03:08:58.469Z,0.84
2023-11-28T03:09:29.907Z,0.92
2023-11-28T03:10:01.337Z,1.09
2023-11-28T03:10:32.801Z,1.01
2023-11-28T03:11:04.452Z,1.00
2023-11-28T03:11:35.995Z,0.89
2023-11-28T03:12:07.442Z,1.14
2023-11-28T03:12:38.891Z,0.94
2023-11-28T03:13:10.332Z,1.12
2023-11-28T03:13:41.793Z,0.93
2023-11-28T03:14:13.327Z,0.82
2023-11-28T03:14:44.770Z,0.96
2023-11-28T03:15:16.196Z,0.99
2023-11-28T03:15:47.679Z,0.95
2023-11-28T03:16:19.247Z,0.95
2023-11-28T03:16:50.787Z,0.95
2023-11-28T03:17:22.300Z,0.87
2023-11-28T03:17:53.810Z,0.70
2023-11-28T03:18:25.289Z,0.52
2023-11-28T03:18:56.737Z,0.93
2023-11-28T03:19:28.172Z,0.94
2023-11-28T03:19:59.649Z,0.93
2023-11-28T03:20:31.182Z,0.81
2023-11-28T03:21:02.657Z,0.67
2023-11-28T03:21:34.095Z,0.99
2023-11-28T03:22:05.541Z,0.90
2023-11-28T03:22:36.988Z,0.73
2023-11-28T03:23:08.487Z,0.72
2023-11-28T03:23:39.939Z,0.67
2023-11-28T03:24:11.375Z,0.94
2023-11-28T03:24:42.821Z,0.89
2023-11-28T03:25:14.330Z,0.66
2023-11-28T03:25:45.844Z,1.12
2023-11-28T03:26:17.289Z,0.74
2023-11-28T03:26:48.709Z,0.77
2023-11-28T03:27:20.186Z,0.95
2023-11-28T03:27:51.649Z,0.89
2023-11-28T03:28:23.081Z,0.88
2023-11-28T03:28:54.583Z,0.96
2023-11-28T03:29:26.072Z,0.83
2023-11-28T03:29:57.579Z,0.89
2023-11-28T03:30:29.101Z,0.79
2023-11-28T03:31:00.543Z,0.91
2023-11-28T03:31:32.076Z,1.03
2023-11-28T03:32:03.605Z,0.90
2023-11-28T03:32:35.281Z,0.78
2023-11-28T03:33:06.836Z,0.99
2023-11-28T03:33:38.284Z,0.82
2023-11-28T03:34:09.712Z,0.73
2023-11-28T03:34:41.258Z,0.96
2023-11-28T03:35:12.776Z,0.93
2023-11-28T03:35:44.212Z,0.59
2023-11-28T03:36:15.656Z,0.82
2023-11-28T03:36:47.084Z,1.09
2023-11-28T03:37:18.519Z,0.95
2023-11-28T03:37:50.044Z,0.78
2023-11-28T03:38:21.548Z,0.88
2023-11-28T03:38:52.990Z,0.75
2023-11-28T03:39:24.424Z,0.88
2023-11-28T03:39:55.888Z,0.64
2023-11-28T03:40:27.326Z,0.82
2023-11-28T03:40:58.774Z,0.79
2023-11-28T03:41:30.215Z,0.69
2023-11-28T03:42:01.702Z,0.87
2023-11-28T03:42:33.138Z,0.72
2023-11-28T03:43:04.573Z,0.70
2023-11-28T03:43:36.029Z,0.60
2023-11-28T03:44:07.618Z,0.76
2023-11-28T03:44:39.089Z,0.72
2023-11-28T03:45:10.526Z,0.96
2023-11-28T03:45:41.978Z,0.69
2023-11-28T03:46:13.488Z,0.82
2023-11-28T03:46:45.012Z,0.84
2023-11-28T03:47:16.505Z,0.96
2023-11-28T03:47:47.978Z,0.63
2023-11-28T03:48:19.434Z,0.59
2023-11-28T03:48:50.963Z,1.01
2023-11-28T03:49:22.434Z,0.80
2023-11-28T03:49:53.928Z,0.79
2023-11-28T03:50:25.403Z,0.75
2023-11-28T03:50:56.828Z,1.11
2023-11-28T03:51:28.278Z,0.90
2023-11-28T03:51:59.713Z,0.81
2023-11-28T03:52:31.149Z,0.95
2023-11-28T03:53:02.614Z,1.21
2023-11-28T03:53:34.115Z,1.08
2023-11-28T03:54:05.572Z,0.79
2023-11-28T03:54:36.999Z,0.75
2023-11-28T03:55:08.429Z,1.06
2023-11-28T03:55:39.902Z,0.82
2023-11-28T03:56:11.343Z,0.96
2023-11-28T03:56:42.791Z,1.06
2023-11-28T03:57:14.276Z,0.66
2023-11-28T03:57:45.836Z,0.97
2023-11-28T03:58:17.430Z,0.80
2023-11-28T03:58:48.978Z,0.78
2023-11-28T03:59:20.458Z,0.60
2023-11-28T03:59:51.887Z,0.82
2023-11-28T04:00:23.322Z,0.96
2023-11-28T04:00:54.760Z,0.85
2023-11-28T04:01:26.230Z,0.63
2023-11-28T04:01:57.749Z,0.91
2023-11-28T04:02:29.309Z,0.92
2023-11-28T04:03:00.966Z,0.71
2023-11-28T04:03:32.589Z,0.76
2023-11-28T04:04:04.040Z,1.07
2023-11-28T04:04:35.671Z,0.77
2023-11-28T04:05:07.322Z,1.33
2023-11-28T04:05:38.827Z,0.72
2023-11-28T04:06:10.253Z,0.82
2023-11-28T04:06:41.680Z,0.69
2023-11-28T04:07:13.144Z,0.86
2023-11-28T04:07:44.709Z,0.89
2023-11-28T04:08:16.228Z,0.84
2023-11-28T04:08:47.653Z,0.58
2023-11-28T04:09:19.094Z,0.87
2023-11-28T04:09:50.523Z,0.76
2023-11-28T04:10:21.955Z,0.58
2023-11-28T04:10:53.428Z,0.64
2023-11-28T04:11:24.888Z,0.70
2023-11-28T04:11:56.320Z,0.76
2023-11-28T04:12:27.813Z,0.76
2023-11-28T04:12:59.258Z,0.93
2023-11-28T04:13:30.742Z,1.03
2023-11-28T04:14:02.210Z,1.11
2023-11-28T04:14:33.661Z,0.90
2023-11-28T04:15:05.115Z,0.90
2023-11-28T04:15:36.549Z,0.73
2023-11-28T04:16:07.981Z,0.70
2023-11-28T04:16:39.440Z,1.18
2023-11-28T04:17:11.019Z,1.05
2023-11-28T04:17:42.610Z,1.08
2023-11-28T04:18:14.198Z,0.74
2023-11-28T04:18:45.789Z,0.80
2023-11-28T04:19:17.423Z,0.75
2023-11-28T04:19:48.933Z,0.85
2023-11-28T04:20:20.402Z,0.71
2023-11-28T04:20:51.833Z,0.63
2023-11-28T04:21:23.279Z,0.56
2023-11-28T04:21:54.763Z,0.78
2023-11-28T04:22:26.249Z,0.83
2023-11-28T04:22:57.723Z,0.63
2023-11-28T04:23:29.166Z,0.60
2023-11-28T04:24:00.600Z,0.92
2023-11-28T04:24:32.035Z,0.56
2023-11-28T04:25:03.460Z,0.63
2023-11-28T04:25:34.939Z,0.74
2023-11-28T04:26:06.478Z,0.76
2023-11-28T04:26:38.048Z,0.79
2023-11-28T04:27:09.528Z,0.86
2023-11-28T04:27:40.971Z,0.79
2023-11-28T04:28:12.420Z,0.69
2023-11-28T04:28:43.946Z,0.88
2023-11-28T04:29:15.486Z,0.80
2023-11-28T04:29:46.956Z,0.94
2023-11-28T04:30:18.490Z,0.76
2023-11-28T04:30:49.991Z,0.60
2023-11-28T04:31:21.752Z,0.54
2023-11-28T04:31:53.425Z,1.00
2023-11-28T04:32:25.021Z,1.01
2023-11-28T04:32:56.547Z,0.65
2023-11-28T04:33:30.274Z,0.78
2023-11-28T04:34:03.343Z,0.68
2023-11-28T04:34:34.820Z,0.66
2023-11-28T04:35:06.314Z,0.77
2023-11-28T04:35:37.805Z,0.67
2023-11-28T04:36:09.306Z,0.80
2023-11-28T04:36:40.883Z,0.68
2023-11-28T04:37:12.307Z,0.59
2023-11-28T04:37:43.872Z,0.57
2023-11-28T04:38:15.400Z,0.57
2023-11-28T04:38:46.837Z,0.57
2023-11-28T04:39:18.266Z,0.81
2023-11-28T04:39:49.694Z,0.62
2023-11-28T04:40:21.130Z,0.84
2023-11-28T04:40:52.653Z,1.08
2023-11-28T04:41:24.167Z,0.70
2023-11-28T04:41:55.612Z,0.72
2023-11-28T04:42:27.050Z,0.68
2023-11-28T04:42:58.481Z,1.06
2023-11-28T04:43:29.989Z,0.78
2023-11-28T04:44:01.462Z,0.57
2023-11-28T04:44:32.890Z,0.80
2023-11-28T04:45:04.328Z,0.46
2023-11-28T04:45:35.842Z,0.73
2023-11-28T04:46:07.367Z,0.94
2023-11-28T04:46:38.917Z,0.71
2023-11-28T04:47:10.456Z,0.72
2023-11-28T04:47:42.027Z,0.84
2023-11-28T04:48:13.573Z,0.68
2023-11-28T04:48:45.033Z,0.67
2023-11-28T04:49:16.463Z,0.66
2023-11-28T04:49:47.934Z,0.74
2023-11-28T04:50:19.445Z,0.83
2023-11-28T04:50:50.882Z,0.99
2023-11-28T04:51:22.315Z,0.79
2023-11-28T04:51:53.790Z,0.78
2023-11-28T04:52:25.220Z,0.80
2023-11-28T04:52:56.694Z,0.82
2023-11-28T04:53:28.170Z,0.54
2023-11-28T04:53:59.619Z,0.54
2023-11-28T04:54:31.051Z,0.65
2023-11-28T04:55:02.506Z,0.70
2023-11-28T04:55:34.067Z,0.78
2023-11-28T04:56:05.616Z,0.66
2023-11-28T04:56:37.128Z,0.79
2023-11-28T04:57:08.571Z,0.66
2023-11-28T04:57:40.032Z,0.77
2023-11-28T04:58:11.504Z,0.84
2023-11-28T04:58:42.964Z,0.85
2023-11-28T04:59:14.416Z,0.65
2023-11-28T04:59:45.983Z,0.77
2023-11-28T05:00:17.563Z,0.64
2023-11-28T05:00:49.022Z,0.68
2023-11-28T05:01:20.456Z,0.60
2023-11-28T05:01:51.989Z,0.80
2023-11-28T05:02:23.545Z,0.81
2023-11-28T05:02:55.226Z,0.67
2023-11-28T05:03:26.899Z,0.70
2023-11-28T05:03:58.456Z,0.61
2023-11-28T05:04:30.137Z,0.76
2023-11-28T05:05:01.729Z,1.13
2023-11-28T05:05:33.167Z,0.94
2023-11-28T05:06:04.613Z,0.91
2023-11-28T05:06:36.046Z,0.63
2023-11-28T05:07:07.481Z,0.47
2023-11-28T05:07:38.945Z,0.54
2023-11-28T05:08:10.508Z,0.50
2023-11-28T05:08:42.014Z,0.65
2023-11-28T05:09:13.512Z,0.65
2023-11-28T05:09:45.001Z,0.61
2023-11-28T05:10:16.456Z,0.65
2023-11-28T05:10:47.917Z,0.80
2023-11-28T05:11:19.367Z,0.64
2023-11-28T05:11:50.803Z,0.83
2023-11-28T05:12:22.247Z,0.60
2023-11-28T05:12:53.677Z,0.67
2023-11-28T05:13:25.118Z,0.85
2023-11-28T05:13:56.658Z,0.73
2023-11-28T05:14:28.200Z,0.72
2023-11-28T05:14:59.638Z,0.61
2023-11-28T05:15:31.063Z,0.83
2023-11-28T05:16:02.507Z,0.75
2023-11-28T05:16:44.926Z,0.56
2023-11-28T05:17:19.858Z,0.77
2023-11-28T05:17:51.358Z,0.69
2023-11-28T05:18:23.039Z,0.36
2023-11-28T05:18:54.669Z,0.57
2023-11-28T05:19:26.181Z,1.03
2023-11-28T05:19:57.659Z,0.75
2023-11-28T05:20:29.097Z,0.59
2023-11-28T05:21:00.552Z,0.44
2023-11-28T05:21:31.981Z,0.49
2023-11-28T05:22:03.424Z,1.05
2023-11-28T05:22:34.897Z,0.67
2023-11-28T05:23:06.430Z,0.62
2023-11-28T05:23:37.960Z,0.61
2023-11-28T05:24:09.401Z,0.68
2023-11-28T05:24:40.834Z,0.47
2023-11-28T05:25:12.323Z,0.42
2023-11-28T05:25:43.805Z,0.69
2023-11-28T05:26:15.271Z,0.78
2023-11-28T05:26:46.700Z,0.68
2023-11-28T05:27:18.147Z,0.70
2023-11-28T05:27:49.619Z,0.45
2023-11-28T05:28:21.105Z,0.72
2023-11-28T05:28:52.619Z,0.58
2023-11-28T05:29:24.100Z,0.73
2023-11-28T05:29:55.541Z,0.44
2023-11-28T05:30:26.977Z,0.54
2023-11-28T05:30:58.432Z,0.83
2023-11-28T05:31:29.875Z,0.85
2023-11-28T05:32:01.340Z,0.49
2023-11-28T05:32:32.835Z,0.53
2023-11-28T05:33:04.377Z,0.67
2023-11-28T05:33:35.978Z,0.62
2023-11-28T05:34:07.408Z,0.64
2023-11-28T05:34:38.849Z,0.73
2023-11-28T05:35:10.388Z,0.75
2023-11-28T05:35:41.923Z,0.58
2023-11-28T05:36:13.371Z,0.49
2023-11-28T05:36:44.813Z,0.66
2023-11-28T05:37:16.242Z,0.58
2023-11-28T05:37:47.790Z,0.73
2023-11-28T05:38:19.263Z,0.65
2023-11-28T05:38:50.691Z,0.83
2023-11-28T05:39:22.141Z,0.60
2023-11-28T05:39:53.588Z,0.46
2023-11-28T05:40:25.047Z,0.53
2023-11-28T05:40:56.513Z,0.64
2023-11-28T05:41:27.982Z,0.90
2023-11-28T05:41:59.415Z,0.72
2023-11-28T05:42:30.896Z,0.63
2023-11-28T05:43:02.502Z,0.40
2023-11-28T05:43:34.007Z,0.64
2023-11-28T05:44:05.502Z,0.82
2023-11-28T05:44:39.147Z,0.86
2023-11-28T05:45:11.393Z,0.77
2023-11-28T05:45:42.823Z,1.01
2023-11-28T05:46:14.287Z,0.78
2023-11-28T05:46:45.794Z,0.66
2023-11-28T05:47:17.350Z,0.48
2023-11-28T05:47:48.996Z,0.53
2023-11-28T05:48:20.501Z,0.44
2023-11-28T05:48:51.964Z,0.65
2023-11-28T05:49:23.404Z,1.06
2023-11-28T05:49:54.894Z,0.96
2023-11-28T05:50:26.377Z,0.74
2023-11-28T05:50:57.806Z,0.56
2023-11-28T05:51:29.256Z,0.67
2023-11-28T05:52:00.787Z,0.62
2023-11-28T05:52:32.295Z,0.69
2023-11-28T05:53:03.810Z,0.63
2023-11-28T05:53:35.291Z,0.83
2023-11-28T05:54:06.752Z,0.57
2023-11-28T05:54:38.188Z,0.55
2023-11-28T05:55:09.636Z,0.49
2023-11-28T05:55:41.096Z,0.97
2023-11-28T05:56:12.563Z,0.76
2023-11-28T05:56:44.111Z,0.85
2023-11-28T05:57:15.574Z,0.68
2023-11-28T05:57:46.999Z,0.48
2023-11-28T05:58:18.428Z,0.78
2023-11-28T05:58:49.903Z,0.58
2023-11-28T05:59:21.362Z,0.72
2023-11-28T05:59:52.791Z,0.53
2023-11-28T06:00:24.229Z,0.61
2023-11-28T06:00:55.660Z,0.58
2023-11-28T06:01:27.148Z,0.73
2023-11-28T06:01:58.723Z,0.84
2023-11-28T06:02:30.366Z,0.84
2023-11-28T06:03:02.029Z,0.72
2023-11-28T06:03:33.559Z,0.99
2023-11-28T06:04:05.111Z,0.76
2023-11-28T06:04:36.721Z,0.56
2023-11-28T06:05:08.241Z,0.47
2023-11-28T06:05:41.943Z,0.69
2023-11-28T06:06:14.867Z,0.81
2023-11-28T06:06:46.349Z,0.58
2023-11-28T06:07:17.835Z,0.76
2023-11-28T06:07:49.305Z,0.63
2023-11-28T06:08:20.744Z,0.60
2023-11-28T06:08:52.188Z,0.54
2023-11-28T06:09:23.632Z,0.57
2023-11-28T06:09:55.081Z,0.69
2023-11-28T06:10:26.527Z,0.77
2023-11-28T06:10:58.045Z,0.65
2023-11-28T06:11:29.572Z,0.45
2023-11-28T06:12:04.199Z,0.61
2023-11-28T06:12:36.248Z,0.68
2023-11-28T06:13:07.674Z,0.72
2023-11-28T06:13:39.169Z,0.70
2023-11-28T06:14:10.671Z,0.88
2023-11-28T06:14:42.115Z,0.71
2023-11-28T06:15:13.551Z,0.53
2023-11-28T06:15:45.065Z,0.60
2023-11-28T06:16:16.581Z,0.81
2023-11-28T06:16:48.073Z,0.83
2023-11-28T06:17:19.528Z,0.79
2023-11-28T06:17:50.996Z,0.68
2023-11-28T06:18:22.501Z,1.01
2023-11-28T06:18:53.947Z,0.77
2023-11-28T06:19:25.424Z,0.86
2023-11-28T06:19:56.879Z,0.63
2023-11-28T06:20:28.429Z,0.55
2023-11-28T06:20:59.883Z,0.91
2023-11-28T06:21:31.322Z,0.60
2023-11-28T06:22:02.755Z,0.77
2023-11-28T06:22:34.261Z,0.57
2023-11-28T06:23:05.787Z,0.74
2023-11-28T06:23:37.252Z,0.79
2023-11-28T06:24:08.698Z,0.46
2023-11-28T06:24:40.131Z,0.64
2023-11-28T06:25:11.578Z,0.54
2023-11-28T06:25:43.105Z,0.54
2023-11-28T06:26:14.603Z,0.64
2023-11-28T06:26:46.035Z,0.65
2023-11-28T06:27:17.470Z,1.05
2023-11-28T06:27:48.900Z,0.88
2023-11-28T06:28:20.331Z,0.68
2023-11-28T06:28:51.786Z,0.59
2023-11-28T06:29:23.321Z,0.67
2023-11-28T06:29:54.859Z,0.57
2023-11-28T06:30:28.229Z,0.51
2023-11-28T06:31:00.304Z,0.57
2023-11-28T06:31:31.892Z,0.73
2023-11-28T06:32:03.363Z,0.67
2023-11-28T06:32:38.084Z,0.77
2023-11-28T06:33:09.860Z,0.64
2023-11-28T06:33:41.337Z,0.74
2023-11-28T06:34:12.909Z,0.65
2023-11-28T06:34:44.547Z,0.50
2023-11-28T06:35:16.168Z,0.83
2023-11-28T06:35:47.865Z,0.71
2023-11-28T06:36:19.712Z,0.76
2023-11-28T06:36:51.234Z,0.70
2023-11-28T06:37:22.667Z,0.71
2023-11-28T06:37:54.133Z,0.72
2023-11-28T06:38:25.637Z,0.69
2023-11-28T06:38:57.101Z,0.63
2023-11-28T06:39:28.597Z,0.72
2023-11-28T06:40:00.035Z,0.65
2023-11-28T06:40:31.482Z,0.79
2023-11-28T06:41:03.056Z,0.63
2023-11-28T06:41:34.530Z,0.96
2023-11-28T06:42:05.967Z,0.60
2023-11-28T06:42:37.418Z,0.97
2023-11-28T06:43:08.850Z,0.79
2023-11-28T06:43:40.353Z,0.74
2023-11-28T06:44:11.901Z,0.59
2023-11-28T06:44:43.388Z,0.47
2023-11-28T06:45:14.861Z,0.55
2023-11-28T06:45:46.374Z,0.69
2023-11-28T06:46:17.819Z,0.59
2023-11-28T06:46:49.265Z,0.70
2023-11-28T06:47:20.731Z,0.63
2023-11-28T06:47:52.327Z,0.67
2023-11-28T06:48:24.025Z,0.87
2023-11-28T06:48:55.663Z,0.82
2023-11-28T06:49:27.224Z,0.86
2023-11-28T06:49:58.756Z,0.75
2023-11-28T06:50:30.246Z,0.55
2023-11-28T06:51:01.688Z,0.57
2023-11-28T06:51:33.128Z,0.45
2023-11-28T06:52:04.565Z,0.77
2023-11-28T06:52:36.048Z,0.69
2023-11-28T06:53:07.646Z,0.66
2023-11-28T06:53:39.125Z,0.57
2023-11-28T06:54:10.591Z,0.79
2023-11-28T06:54:42.026Z,0.81
2023-11-28T06:55:13.627Z,0.63
2023-11-28T06:55:45.122Z,0.96
2023-11-28T06:56:16.732Z,0.80
2023-11-28T06:56:48.352Z,0.70
2023-11-28T06:57:19.862Z,0.40
2023-11-28T06:57:51.717Z,0.69
2023-11-28T06:58:23.174Z,0.63
2023-11-28T06:58:54.640Z,0.58
2023-11-28T06:59:26.118Z,0.59
2023-11-28T06:59:57.619Z,0.74